• Join FlightAware (Why Join?)
  • Login
  • US Flag 
06:32PM EDT


 

Airport Tracker/Info


-or-


 

Live Flight TrackerFlight Track Log ✈ BAW283 ✈ 01-May-2013 ✈ EGLL / LHR - KLAX

Flight Track Log - Related Links

Times and Time Zones

All times are in EDT time to prevent confusion due to time zone crossing. See the BAW283 flight status page for this flight to view local times or setup timezone preferences in your user account.

Time Position Orientation Groundspeed Altitude Reporting Facility
EDT Latitude Longitude Course Direction KTS MPH feet Rate Location/Type
07:37AM 51.4700 -0.3990 56° Northeast 177 204 1,000  Level FlightAware
07:38AM 51.4850 -0.3710 49° Northeast 192 221 1,400 1,320 Climbing FlightAware
07:38AM 51.4970 -0.3480 50° Northeast 195 224 2,000 -540 Climbing FlightAware
07:38AM 51.5083 -0.3271 50° Northeast 208 239 1,100 1,920 Descending FlightAware UK
07:39AM 51.5110 -0.3230 50° Northeast 197 227 2,800 5,520 Climbing FlightAware
07:39AM 51.5233 -0.2969 53° Northeast 199 229 3,500 2,280 Climbing FlightAware ADS-B
07:39AM 51.5251 -0.2902 67° East 198 228 3,600 1,680 Climbing FlightAware ADS-B
07:39AM 51.5305 -0.2684 68° East 198 228 4,100 1,860 Climbing FlightAware ADS-B
07:39AM 51.5322 -0.2647 53° Northeast 202 232 4,200 660 Climbing FlightAware ADS-B
07:39AM 51.5361 -0.2579 47° Northeast 207 238 4,200  Level FlightAware ADS-B
07:39AM 51.5391 -0.2541 38° Northeast 213 245 4,200 720 Level FlightAware ADS-B
07:40AM 51.5424 -0.2518 24° Northeast 216 249 4,300 1,320 Climbing FlightAware ADS-B
07:40AM 51.5472 -0.2486 23° Northeast 222 255 4,400 420 Climbing FlightAware ADS-B
07:40AM 51.5553 -0.2472 North 233 268 4,400 840 Level FlightAware ADS-B
07:40AM 51.5625 -0.2476 358° North 239 275 4,600 1,080 Climbing FlightAware ADS-B
07:40AM 51.5806 -0.2500 355° North 256 295 4,800 900 Climbing FlightAware ADS-B
07:40AM 51.5995 -0.2526 355° North 274 315 5,100 1,380 Climbing FlightAware ADS-B
07:41AM 51.6176 -0.2549 355° North 284 327 5,500 1,380 Climbing FlightAware ADS-B
07:41AM 51.6338 -0.2554 359° North 291 335 5,700 420 Climbing FlightAware ADS-B
07:41AM 51.6547 -0.2551 North 297 342 5,700  Level FlightAware ADS-B
07:41AM 51.6754 -0.2543 North 296 341 5,700  Level FlightAware ADS-B
07:41AM 51.6831 -0.2534 North 296 341 5,700 240 Level FlightAware ADS-B
07:42AM 51.7050 -0.2473 10° North 296 341 5,800 180 Climbing FlightAware ADS-B
07:42AM 51.7256 -0.2408 11° North 297 342 5,800  Level FlightAware ADS-B
07:42AM 51.7486 -0.2341 10° North 298 343 5,800 540 Level FlightAware ADS-B
07:42AM 51.7691 -0.2282 10° North 300 345 6,100 1,980 Climbing FlightAware ADS-B
07:43AM 51.7896 -0.2219 11° North 299 344 6,800 2,700 Climbing FlightAware ADS-B
07:43AM 51.8110 -0.2156 10° North 301 346 7,500 2,400 Climbing FlightAware ADS-B
07:43AM 51.8331 -0.2089 11° North 304 350 8,100 2,160 Climbing FlightAware ADS-B
07:44AM 51.8568 -0.2015 11° North 307 353 8,700 2,400 Climbing FlightAware ADS-B
07:44AM 51.8817 -0.1935 11° North 308 354 9,500 2,340 Climbing FlightAware ADS-B
07:44AM 51.9109 -0.1858 North 311 358 10,200 1,920 Climbing FlightAware ADS-B
07:44AM 51.9182 -0.1862 358° North 314 361 10,300 1,200 Climbing FlightAware ADS-B
07:44AM 51.9247 -0.1882 349° North 318 366 10,400 900 Climbing FlightAware ADS-B
07:44AM 51.9352 -0.1939 341° North 324 373 10,500 660 Climbing FlightAware ADS-B
07:45AM 51.9476 -0.2067 328° Northwest 330 380 10,600 1,020 Climbing FlightAware ADS-B
07:45AM 51.9848 -0.2546 322° Northwest 351 404 11,200 1,140 Climbing FlightAware ADS-B
07:45AM 52.0067 -0.2811 323° Northwest 365 420 11,500 1,140 Climbing FlightAware ADS-B
07:46AM 52.0195 -0.2944 327° Northwest 372 428 11,700 -1,620 Climbing FlightAware ADS-B
07:46AM 52.0581 -0.3290 327° Northwest 390 449 10,600 1,320 Descending FlightAware UK
07:46AM 52.0684 -0.3378 327° Northwest 388 447 12,400 1,980 Climbing FlightAware ADS-B
07:46AM 52.0966 -0.3624 327° Northwest 398 458 11,400 1,920 Descending FlightAware UK
07:47AM 52.1176 -0.3792 327° Northwest 396 456 13,400 4,140 Climbing FlightAware ADS-B
07:47AM 52.1671 -0.4227 332° Northwest 401 461 14,400 1,860 Climbing FlightAware ADS-B
07:48AM 52.2182 -0.4665 332° Northwest 407 468 15,300 1,740 Climbing FlightAware ADS-B
07:48AM 52.2747 -0.5134 333° Northwest 412 474 16,300 180 Climbing FlightAware ADS-B
07:48AM 52.3057 -0.5401 333° Northwest 420 483 15,500 2,160 Descending FlightAware UK
07:49AM 52.3266 -0.5569 333° Northwest 413 475 17,400 3,720 Climbing FlightAware ADS-B
07:49AM 52.3832 -0.6039 333° Northwest 418 481 18,300 360 Climbing FlightAware ADS-B
07:50AM 52.4397 -0.6503 333° Northwest 426 490 17,800 1,620 Descending FlightAware UK
07:50AM 52.4579 -0.6649 333° Northwest 422 486 19,500 3,600 Climbing FlightAware ADS-B
07:51AM 52.5190 -0.7135 334° Northwest 425 489 20,500 1,680 Climbing FlightAware ADS-B
07:51AM 52.5428 -0.7350 331° Northwest 424 488 20,900 720 Climbing FlightAware ADS-B
07:52AM 52.7058 -0.9321 311° West 446 513 21,900 1,380 Climbing FlightAware UK
07:53AM 52.6883 -1.0088 311° West  Level Estimated
07:53AM 52.7150 -0.9430 311° West 431 496 23,600  Level FlightAware
07:53AM 52.7639 -1.0028 311° West 450 518 22,700 1,200 Descending FlightAware UK
07:53AM 52.7900 -1.0380 311° West 434 499 24,500 1,080 Climbing FlightAware
07:54AM 52.8455 -1.1218 311° West 456 525 23,700 1,200 Descending FlightAware UK
07:54AM 52.8510 -1.1270 311° West 439 505 25,300 1,140 Climbing FlightAware
07:55AM 52.9009 -1.2013 311° West 462 532 24,400 1,020 Descending FlightAware UK
07:55AM 52.9090 -1.2110 311° West 443 510 26,000 1,140 Climbing FlightAware
07:55AM 52.9666 -1.2933 311° West 470 541 25,200 1,320 Descending FlightAware UK
07:55AM 52.9810 -1.3130 311° West 445 512 27,000 1,200 Climbing FlightAware
07:56AM 53.0138 -1.3595 311° West 472 543 25,800 1,020 Descending FlightAware UK
07:56AM 53.0370 -1.3900 311° West 447 514 27,600 960 Climbing FlightAware
07:56AM 53.0705 -1.4396 311° West 474 545 26,400 -1,500 Descending FlightAware UK
07:57AM 53.0987 -1.4795 320° Northwest 476 548 26,700 4,440 Climbing FlightAware UK
07:57AM 53.1070 -1.4910 320° Northwest 452 520 28,400 960 Climbing FlightAware
07:57AM 53.1369 -1.5338 320° Northwest 478 550 27,100 -1,860 Descending FlightAware UK
07:57AM 53.1656 -1.5749 319° Northwest 480 552 27,400 3,780 Climbing FlightAware UK
07:58AM 53.1810 -1.5960 319° Northwest 456 525 29,000 4,800 Climbing FlightAware
07:58AM 53.1996 -1.6235 318° Northwest 460 529 29,100 -3,300 Climbing FlightAware ADS-B
07:58AM 53.2234 -1.6578 318° Northwest 490 564 27,700 540 Descending FlightAware UK
07:58AM 53.2430 -1.6840 318° Northwest 465 535 29,400 4,320 Climbing FlightAware
07:58AM 53.2649 -1.7172 318° Northwest 468 539 29,500 -2,820 Climbing FlightAware ADS-B
07:59AM 53.2921 -1.7571 318° Northwest 494 568 28,200 900 Descending FlightAware UK
07:59AM 53.3185 -1.7951 318° Northwest 469 540 30,000 1,140 Climbing FlightAware ADS-B
07:59AM 53.3606 -1.8560 318° Northwest 494 568 29,000 1,260 Descending FlightAware UK
07:59AM 53.3705 -1.8685 318° Northwest 467 537 30,700 3,660 Climbing FlightAware ADS-B
08:00AM 53.4201 -1.9419 319° Northwest 466 536 31,200 -900 Climbing FlightAware ADS-B
08:00AM 53.4484 -1.9839 319° Northwest 490 564 30,000 900 Descending FlightAware UK
08:00AM 53.4708 -2.0153 319° Northwest 465 535 31,700 780 Climbing FlightAware ADS-B
08:01AM 53.4966 -2.0546 319° Northwest 488 562 30,400 720 Descending FlightAware UK
08:01AM 53.5073 -2.0800 319° Northwest 457 526 32,000 180 Climbing FlightAware ADS-B
08:01AM 53.5283 -2.1462 319° Northwest 490 564 30,500  Descending FlightAware UK
08:01AM 53.5417 -2.1849 319° Northwest 454 522 32,000 2,040 Climbing FlightAware ADS-B
08:02AM 53.5692 -2.2798 296° West 453 521 32,000 -1,740 Level FlightAware ADS-B
08:02AM 53.5875 -2.3548 296° West 490 564 30,500 -2,280 Descending FlightAware UK
08:03AM 53.6020 -2.4130 293° West 490 564 30,500  Level FlightAware UK
08:03AM 53.6171 -2.4707 294° West 490 564 30,500 3,000 Level FlightAware UK
08:03AM 53.6240 -2.4960 294° West 451 519 32,000  Climbing FlightAware
08:03AM 53.6422 -2.5670 294° West 490 564 30,500  Descending FlightAware UK
08:04AM 53.6570 -2.6240 294° West 450 518 32,000  Climbing FlightAware
08:04AM 53.6921 -2.7593 294° West 490 564 30,500  Descending FlightAware UK
08:05AM 53.6950 -2.7690 294° West 451 519 32,000  Climbing FlightAware
08:05AM 53.7121 -2.8365 294° West 490 564 30,500  Descending FlightAware UK
08:05AM 53.7270 -2.8950 294° West 451 519 32,000 1,380 Climbing FlightAware
08:06AM 53.7620 -3.0330 293° West 450 518 32,000 -1,680 Level FlightAware
08:06AM 53.7764 -3.0876 293° West 490 564 30,500 -2,760 Descending FlightAware UK
08:06AM 53.7910 -3.1459 293° West 490 564 30,500 3,000 Level FlightAware UK
08:07AM 53.7990 -3.1720 293° West 450 518 32,000  Climbing FlightAware
08:07AM 53.8198 -3.2388 293° West 488 562 30,500  Descending FlightAware UK
08:07AM 53.8380 -3.2920 293° West 452 520 32,000  Climbing FlightAware
08:08AM 53.8700 -3.3861 293° West 486 559 30,500  Descending FlightAware UK
08:08AM 53.8860 -3.4340 293° West 453 521 32,000  Climbing FlightAware
08:09AM 53.9186 -3.5354 293° West 490 564 30,500  Descending FlightAware UK
08:09AM 53.9290 -3.5640 293° West 454 522 32,000  Climbing FlightAware
08:09AM 53.9501 -3.6281 293° West 488 562 30,500 -2,460 Descending FlightAware UK
08:09AM 53.9692 -3.6835 300° West 488 562 30,500 3,420 Level FlightAware UK
08:09AM 53.9750 -3.6970 300° West 454 522 32,000  Climbing FlightAware
08:10AM 54.0005 -3.7754 300° West 490 564 30,500  Descending FlightAware UK
08:10AM 54.0160 -3.8210 300° West 454 522 32,000  Climbing FlightAware
08:11AM 54.0567 -3.9436 300° West 490 564 30,500  Descending FlightAware UK
08:11AM 54.0550 -3.9390 300° West 453 521 32,000 1,800 Climbing FlightAware
08:12AM 54.1050 -4.0900 300° West 453 521 32,000 -1,500 Level FlightAware
08:12AM 54.1244 -4.1480 300° West 490 564 30,500 -2,700 Descending FlightAware UK
08:12AM 54.1429 -4.2039 299° West 490 564 30,500 3,720 Level FlightAware UK
08:12AM 54.1450 -4.2080 299° West 452 520 32,000 1,920 Climbing FlightAware
08:13AM 54.1860 -4.3390 298° West 448 516 32,000 -1,500 Level FlightAware
08:13AM 54.2002 -4.4146 298° West 490 564 30,500 -2,100 Descending FlightAware UK
08:14AM 54.2094 -4.4968 281° West 490 564 30,500 3,600 Level FlightAware UK
08:14AM 54.2080 -4.4850 281° West 441 507 32,000  Climbing FlightAware
08:14AM 54.2183 -4.5788 281° West 490 564 30,500  Descending FlightAware UK
08:14AM 54.2260 -4.6450 281° West 441 507 32,000  Climbing FlightAware
08:15AM 54.2340 -4.7224 281° West 488 562 30,500  Descending FlightAware UK
08:15AM 54.2400 -4.7790 281° West 442 509 32,000  Climbing FlightAware
08:15AM 54.2475 -4.8458 281° West 490 564 30,500 -2,700 Descending FlightAware UK
08:16AM 54.2541 -4.9069 280° West 490 564 30,500 3,720 Level FlightAware UK
08:16AM 54.2560 -4.9200 280° West 443 510 32,000  Climbing FlightAware
08:16AM 54.2631 -4.9894 280° West 490 564 30,500 -2,520 Descending FlightAware UK
08:16AM 54.2697 -5.0514 280° West 490 564 30,500 3,300 Level FlightAware UK
08:16AM 54.2710 -5.0610 280° West 443 510 32,000  Climbing FlightAware
08:17AM 54.2840 -5.1317 280° West 492 566 30,500 -2,760 Descending FlightAware UK
08:17AM 54.3010 -5.1884 297° West 492 566 30,500 3,600 Level FlightAware UK
08:17AM 54.3040 -5.1970 297° West 447 514 32,000  Climbing FlightAware
08:17AM 54.3241 -5.2635 297° West 492 566 30,500 -2,580 Descending FlightAware UK
08:18AM 54.3413 -5.3198 298° West 492 566 30,500 3,180 Level FlightAware UK
08:18AM 54.3480 -5.3440 298° West 445 512 32,000  Climbing FlightAware
08:18AM 54.3694 -5.4140 298° West 492 566 30,500 -2,400 Descending FlightAware UK
08:19AM 54.3867 -5.4699 298° West 490 564 30,500 4,500 Level FlightAware UK
08:19AM 54.3850 -5.4620 298° West 443 510 32,000  Climbing FlightAware
08:19AM 54.4052 -5.5245 298° West 492 566 30,500 -2,700 Descending FlightAware UK
08:19AM 54.4236 -5.5793 300° West 492 566 30,500 3,720 Level FlightAware UK
08:19AM 54.4280 -5.5910 300° West 442 509 32,000  Climbing FlightAware
08:20AM 54.4482 -5.6520 300° West 492 566 30,500 -2,520 Descending FlightAware UK
08:20AM 54.4665 -5.7067 300° West 492 566 30,500 3,300 Level FlightAware UK
08:20AM 54.4720 -5.7240 300° West 439 505 32,000  Climbing FlightAware
08:20AM 54.4905 -5.7796 300° West 490 564 30,500 -2,760 Descending FlightAware UK
08:21AM 54.5085 -5.8341 300° West 490 564 30,500 3,600 Level FlightAware UK
08:21AM 54.5130 -5.8450 300° West 436 502 32,000  Climbing FlightAware
08:21AM 54.5323 -5.9066 300° West 490 564 30,500 -2,580 Descending FlightAware UK
08:21AM 54.5498 -5.9610 299° West 490 564 30,500 3,900 Level FlightAware UK
08:21AM 54.5450 -5.9450 299° West 436 502 32,000  Climbing FlightAware
08:22AM 54.5736 -6.0331 299° West 490 564 30,500  Descending FlightAware UK
08:22AM 54.5830 -6.0620 299° West 433 498 32,000  Climbing FlightAware
08:22AM 54.5911 -6.0873 299° West 488 562 30,500 -4,500 Descending FlightAware UK
08:22AM 54.6086 -6.1405 299° West 488 562 30,500  Level FlightAware UK
08:23AM 54.6259 -6.1946 299° West 488 562 30,500 3,600 Level FlightAware UK
08:23AM 54.6230 -6.1860 299° West 432 497 32,000  Climbing FlightAware
08:23AM 54.6490 -6.2664 299° West 488 562 30,500 -2,580 Descending FlightAware UK
08:23AM 54.6664 -6.3206 299° West 488 562 30,500 3,180 Level FlightAware UK
08:23AM 54.6720 -6.3360 299° West 431 496 32,000  Climbing FlightAware
08:24AM 54.6954 -6.4111 299° West 488 562 30,500 -2,400 Descending FlightAware UK
08:24AM 54.7127 -6.4653 299° West 488 562 30,500 3,600 Level FlightAware UK
08:24AM 54.7160 -6.4740 299° West 430 495 32,000  Climbing FlightAware
08:24AM 54.7359 -6.5373 299° West 490 564 30,500 -2,580 Descending FlightAware UK
08:25AM 54.7533 -6.5914 299° West 490 564 30,500 3,900 Level FlightAware UK
08:25AM 54.7540 -6.5940 299° West 429 494 32,000  Climbing FlightAware
08:25AM 54.7763 -6.6636 299° West 490 564 30,500 -2,460 Descending FlightAware UK
08:25AM 54.7935 -6.7176 299° West 490 564 30,500 3,420 Level FlightAware UK
08:26AM 54.7980 -6.7330 299° West 424 488 32,000  Climbing FlightAware
08:26AM 54.8163 -6.7899 299° West 490 564 30,500 -2,700 Descending FlightAware UK
08:26AM 54.8334 -6.8440 299° West 490 564 30,500 2,640 Level FlightAware UK
08:26AM 54.8430 -6.8740 299° West 423 487 32,000  Climbing FlightAware
08:26AM 54.8504 -6.8980 299° West 490 564 30,500 -4,500 Descending FlightAware UK
08:27AM 54.8674 -6.9521 299° West 490 564 30,500  Level FlightAware UK
08:27AM 54.8844 -7.0061 299° West 488 562 30,500  Level FlightAware UK
08:27AM 54.9013 -7.0602 298° West 490 564 30,500  Level FlightAware UK
08:28AM 54.9182 -7.1143 299° West 490 564 30,500  Level FlightAware UK
08:28AM 54.9350 -7.1683 299° West 490 564 30,500 2,160 Level FlightAware UK
08:28AM 54.9510 -7.2190 299° West 420 483 32,000  Climbing FlightAware
08:28AM 54.9575 -7.2402 299° West 490 564 30,500 -4,740 Descending FlightAware UK
08:29AM 54.9743 -7.2941 299° West 490 564 30,500  Level FlightAware UK
08:29AM 54.9910 -7.3481 298° West 490 564 30,500 3,420 Level FlightAware UK
08:29AM 54.9940 -7.3570 298° West 419 482 32,000  Climbing FlightAware
08:29AM 55.0129 -7.4195 298° West 488 562 30,500 -2,700 Descending FlightAware UK
08:30AM 55.0294 -7.4734 298° West 490 564 30,500 3,720 Level FlightAware UK
08:30AM 55.0320 -7.4800 298° West 422 486 32,000  Climbing FlightAware
08:30AM 55.0514 -7.5454 298° West 490 564 30,500 -2,520 Descending FlightAware UK
08:30AM 55.0679 -7.5993 298° West 490 564 30,500 3,300 Level FlightAware UK
08:30AM 55.0710 -7.6090 298° West 420 483 32,000  Climbing FlightAware
08:31AM 55.0899 -7.6712 298° West 490 564 30,500 -2,760 Descending FlightAware UK
08:31AM 55.1063 -7.7249 298° West 490 564 30,500 3,600 Level FlightAware UK
08:31AM 55.1080 -7.7250 298° West 420 483 32,000  Climbing FlightAware
08:31AM 55.1282 -7.7966 298° West 488 562 30,500 -2,580 Descending FlightAware UK
08:32AM 55.1445 -7.8505 298° West 488 562 30,500 3,900 Level FlightAware UK
08:32AM 55.1450 -7.8510 298° West 419 482 32,000  Climbing FlightAware
08:32AM 55.1661 -7.9223 298° West 488 562 30,500 -2,460 Descending FlightAware UK
08:32AM 55.1823 -7.9761 298° West 488 562 30,500 3,420 Level FlightAware UK
08:33AM 55.1850 -7.9820 298° West 419 482 32,000  Climbing FlightAware
08:33AM 55.2038 -8.0480 298° West 488 562 30,500 -2,700 Descending FlightAware UK
08:33AM 55.2200 -8.1019 298° West 490 564 30,500 3,720 Level FlightAware UK
08:33AM 55.2210 -8.1050 298° West 418 481 32,000  Climbing FlightAware
08:34AM 55.2416 -8.1739 298° West 490 564 30,500 -2,520 Descending FlightAware UK
08:34AM 55.2577 -8.2280 298° West 490 564 30,500 4,080 Level FlightAware UK
08:34AM 55.2580 -8.2280 298° West 418 481 32,000  Climbing FlightAware
08:34AM 55.2793 -8.2999 298° West 490 564 30,500 -2,400 Descending FlightAware UK
08:35AM 55.2953 -8.3540 297° West 490 564 30,500 3,600 Level FlightAware UK
08:35AM 55.2980 -8.3600 297° West 417 480 32,000  Climbing FlightAware
08:35AM 55.3166 -8.4261 297° West 490 564 30,500 -2,580 Descending FlightAware UK
08:35AM 55.3324 -8.4802 297° West 490 564 30,500 3,900 Level FlightAware UK
08:35AM 55.3340 -8.4860 297° West 413 475 32,000  Climbing FlightAware
08:36AM 55.3535 -8.5524 297° West 490 564 30,500 -2,460 Descending FlightAware UK
08:36AM 55.3694 -8.6064 297° West 490 564 30,500 4,260 Level FlightAware UK
08:36AM 55.3700 -8.6070 297° West 412 474 32,000  Climbing FlightAware
08:36AM 55.3851 -8.6604 297° West 490 564 30,500 -2,760 Descending FlightAware UK
08:37AM 55.4007 -8.7139 297° West 490 564 30,500  Level FlightAware UK
08:37AM 55.4165 -8.7680 297° West 488 562 30,500  Level FlightAware UK
08:37AM 55.4322 -8.8221 297° West 488 562 30,500  Level FlightAware UK
08:37AM 55.4479 -8.8763 297° West 488 562 30,500 3,420 Level FlightAware UK
08:38AM 55.4500 -8.8830 297° West 411 473 32,000  Climbing FlightAware
08:38AM 55.4690 -8.9486 297° West 490 564 30,500 -2,700 Descending FlightAware UK
08:38AM 55.4847 -9.0029 297° West 490 564 30,500 420 Level FlightAware UK
08:41AM 55.6320 -9.5210 297° West 411 473 32,000 360 Climbing FlightAware
08:42AM 55.6650 -9.6360 297° West 411 473 32,000  Level FlightAware
08:43AM 55.7090 -9.7940 296° West 411 473 32,000  Level FlightAware
08:43AM 55.7470 -9.9320 296° West 415 478 32,000  Level FlightAware
08:44AM 55.7790 -10.0480 296° West 415 478 32,000  Level FlightAware
08:45AM 55.8190 -10.1940 296° West 413 475 32,000  Level FlightAware
08:45AM 55.8500 -10.3080 296° West 413 475 32,000  Level FlightAware
08:46AM 55.8890 -10.4510 296° West 412 474 32,000  Level FlightAware
08:47AM 55.9190 -10.5630 296° West 412 474 32,000  Level FlightAware
08:47AM 55.9490 -10.6770 295° West 413 475 32,000  Level FlightAware
08:48AM 55.9770 -10.7830 295° West 413 475 32,000  Level FlightAware
08:49AM 56.0230 -10.9510 296° West 411 473 32,000  Level FlightAware
08:50AM 56.0640 -11.1060 295° West 411 473 32,000  Level FlightAware
08:51AM 56.1030 -11.2600 294° West 404 465 32,000  Level FlightAware
08:51AM 56.1260 -11.3540 294° West 404 465 32,000  Level FlightAware
08:52AM 56.1680 -11.5050 297° West 32,000  Level FlightAware
08:53AM 56.2050 -11.6490 295° West 404 465 32,000  Level FlightAware
08:53AM 56.2350 -11.7690 294° West 404 465 32,000  Level FlightAware
08:54AM 56.2630 -11.8800 294° West 404 465 32,000  Level FlightAware
08:55AM 56.2920 -12.0010 293° West 404 465 32,000  Level FlightAware
08:55AM 56.3230 -12.1330 293° West 404 465 32,000  Level FlightAware
08:56AM 56.3420 -12.2120 293° West 404 465 32,000  Level FlightAware
08:57AM 56.3730 -12.3440 293° West 404 465 32,000  Level FlightAware
08:57AM 56.3970 -12.4500 292° West 404 465 32,000  Level FlightAware
08:58AM 56.4220 -12.5560 293° West 404 465 32,000  Level FlightAware
08:59AM 56.4530 -12.6880 293° West 404 465 32,000  Level FlightAware
09:00AM 56.4780 -12.7940 293° West 404 465 32,000  Level FlightAware
09:00AM 56.5030 -12.9000 293° West 404 465 32,000  Level FlightAware
09:01AM 56.5280 -13.0060 293° West 404 465 32,000  Level FlightAware
09:02AM 56.5530 -13.1120 293° West 404 465 32,000  Level FlightAware
09:02AM 56.5770 -13.2180 292° West 404 465 32,000  Level FlightAware
09:03AM 56.6080 -13.3510 293° West 404 465 32,000  Level FlightAware
09:04AM 56.6330 -13.4570 293° West 404 465 32,000  Level FlightAware
09:06AM 56.7438 -13.7917 301° West  Level Estimated
09:07AM 56.8080 -13.9876 301° West  Level Estimated
09:08AM 56.8718 -14.1842 301° West  Level Estimated
09:09AM 56.9353 -14.3814 301° West  Level Estimated
09:10AM 56.9985 -14.5794 300° West  Level Estimated
09:11AM 57.0614 -14.7779 300° West  Level Estimated
09:12AM 57.1240 -14.9772 300° West  Level Estimated
09:13AM 57.1863 -15.1771 300° West  Level Estimated
09:14AM 57.2482 -15.3777 300° West  Level Estimated
09:15AM 57.3098 -15.5790 300° West  Level Estimated
09:16AM 57.3712 -15.7809 299° West  Level Estimated
09:17AM 57.4321 -15.9836 299° West  Level Estimated
09:18AM 57.4928 -16.1868 299° West  Level Estimated
09:19AM 57.5531 -16.3908 299° West  Level Estimated
09:20AM 57.6131 -16.5955 299° West  Level Estimated
09:21AM 57.6728 -16.8008 299° West  Level Estimated
09:22AM 57.7328 -17.0092 298° West  Level Estimated
09:23AM 57.7925 -17.2183 298° West  Level Estimated
09:24AM 57.8518 -17.4282 298° West  Level Estimated
09:25AM 57.9108 -17.6387 298° West  Level Estimated
09:26AM 57.9695 -17.8499 298° West  Level Estimated
09:27AM 58.0277 -18.0618 298° West  Level Estimated
09:28AM 58.0857 -18.2743 297° West  Level Estimated
09:29AM 58.1433 -18.4876 297° West  Level Estimated
09:30AM 58.2005 -18.7015 297° West  Level Estimated
09:31AM 58.2574 -18.9162 297° West  Level Estimated
09:32AM 58.3139 -19.1315 297° West  Level Estimated
09:33AM 58.3700 -19.3475 296° West  Level Estimated
09:34AM 58.4258 -19.5642 296° West  Level Estimated
09:35AM 58.4812 -19.7816 296° West  Level Estimated
09:36AM 58.5362 -19.9997 296° West  Level Estimated
09:37AM 58.5909 -20.2185 296° West  Level Estimated
09:38AM 58.6452 -20.4379 296° West  Level Estimated
09:39AM 58.6991 -20.6580 295° West  Level Estimated
09:40AM 58.7527 -20.8788 295° West  Level Estimated
09:40AM 59.0000 -20.0000 296° West 450 518 32,000  Level ETMS Enhanced Traffic Management System
09:41AM 58.8059 -21.1003 295° West  Level Estimated
09:42AM 58.8587 -21.3225 295° West  Level Estimated
09:43AM 58.9111 -21.5453 295° West  Level Estimated
09:44AM 58.9631 -21.7688 294° West  Level Estimated
09:45AM 59.0147 -21.9930 294° West  Level Estimated
09:46AM 59.3759 -21.5438 295° West 450 518 32,000  Level FlightAware Transoceanic
09:47AM 59.4281 -21.7672 295° West 450 518 32,000  Level FlightAware Transoceanic
09:48AM 59.4799 -21.9912 294° West 450 518 32,000  Level FlightAware Transoceanic
09:49AM 59.5313 -22.2159 294° West 450 518 32,000  Level FlightAware Transoceanic
09:50AM 59.5823 -22.4412 294° West 450 518 32,000  Level FlightAware Transoceanic
09:51AM 59.6330 -22.6673 294° West 450 518 32,000  Level FlightAware Transoceanic
09:52AM 59.6832 -22.8940 294° West 450 518 32,000  Level FlightAware Transoceanic
09:53AM 59.7331 -23.1214 293° West 450 518 32,000  Level FlightAware Transoceanic
09:54AM 59.7826 -23.3495 293° West 450 518 32,000  Level FlightAware Transoceanic
09:55AM 59.8317 -23.5783 293° West 450 518 32,000  Level FlightAware Transoceanic
09:56AM 59.8803 -23.8077 293° West 450 518 32,000  Level FlightAware Transoceanic
09:57AM 59.9286 -24.0378 293° West 450 518 32,000  Level FlightAware Transoceanic
09:58AM 59.9765 -24.2686 292° West 450 518 32,000  Level FlightAware Transoceanic
09:59AM 60.0240 -24.5000 292° West 450 518 32,000  Level FlightAware Transoceanic
10:00AM 60.0710 -24.7321 292° West 450 518 32,000  Level FlightAware Transoceanic
10:01AM 60.1177 -24.9649 292° West 450 518 32,000  Level FlightAware Transoceanic
10:02AM 60.1639 -25.1983 292° West 450 518 32,000  Level FlightAware Transoceanic
10:03AM 60.2098 -25.4324 291° West 450 518 32,000  Level FlightAware Transoceanic
10:04AM 60.2552 -25.6671 291° West 450 518 32,000  Level FlightAware Transoceanic
10:05AM 60.3002 -25.9025 291° West 450 518 32,000  Level FlightAware Transoceanic
10:06AM 60.3448 -26.1385 291° West 450 518 32,000  Level FlightAware Transoceanic
10:07AM 60.3890 -26.3752 291° West 450 518 32,000  Level FlightAware Transoceanic
10:08AM 60.4327 -26.6125 290° West 450 518 32,000  Level FlightAware Transoceanic
10:09AM 60.4761 -26.8505 290° West 450 518 32,000  Level FlightAware Transoceanic
10:10AM 60.5190 -27.0891 290° West 450 518 32,000  Level FlightAware Transoceanic
10:11AM 60.5614 -27.3283 290° West 450 518 32,000  Level FlightAware Transoceanic
10:12AM 60.6035 -27.5681 290° West 450 518 32,000  Level FlightAware Transoceanic
10:13AM 60.6451 -27.8085 289° West 450 518 32,000  Level FlightAware Transoceanic
10:14AM 60.6863 -28.0496 289° West 450 518 32,000  Level FlightAware Transoceanic
10:15AM 60.7270 -28.2913 289° West 450 518 32,000  Level FlightAware Transoceanic
10:16AM 60.7674 -28.5336 289° West 450 518 32,000  Level FlightAware Transoceanic
10:17AM 60.8072 -28.7765 288° West 450 518 32,000  Level FlightAware Transoceanic
10:18AM 60.8467 -29.0200 288° West 450 518 32,000  Level FlightAware Transoceanic
10:19AM 60.8857 -29.2641 288° West 450 518 32,000  Level FlightAware Transoceanic
10:20AM 60.9242 -29.5088 288° West 450 518 32,000  Level FlightAware Transoceanic
10:21AM 60.9623 -29.7541 288° West 450 518 32,000  Level FlightAware Transoceanic
10:22AM 61.0004 -30.0028 288° West  Level FlightAware Approximate
10:23AM 61.0002 -30.0059 274° West  Level FlightAware Approximate
10:24AM 61.0094 -30.2662 274° West  Level FlightAware Approximate
10:25AM 61.0182 -30.5267 274° West  Level FlightAware Approximate
10:26AM 61.0264 -30.7873 274° West  Level FlightAware Approximate
10:27AM 61.0341 -31.0480 274° West  Level FlightAware Approximate
10:28AM 61.0413 -31.3088 273° West  Level FlightAware Approximate
10:29AM 61.0480 -31.5698 273° West  Level FlightAware Approximate
10:29AM 61.0000 -30.0000 274° West 484 557 32,000  Level ETMS Enhanced Traffic Management System
10:30AM 61.0544 -31.8308 273° West  Level FlightAware Approximate
10:31AM 61.0603 -32.0920 273° West  Level FlightAware Approximate
10:32AM 61.0657 -32.3532 273° West  Level FlightAware Approximate
10:33AM 61.0706 -32.6146 272° West  Level FlightAware Approximate
10:34AM 61.0750 -32.8760 272° West  Level FlightAware Approximate
10:35AM 61.0880 -33.8868 271° West 484 557 32,000  Level FlightAware Transoceanic
10:36AM 61.0900 -34.1651 271° West 484 557 32,000  Level FlightAware Transoceanic
10:37AM 61.0914 -34.4434 270° West 484 557 32,000  Level FlightAware Transoceanic
10:38AM 61.0923 -34.7217 270° West 484 557 32,000  Level FlightAware Transoceanic
10:39AM 61.0925 -35.0000 270° West 484 557 32,000  Level FlightAware Transoceanic
10:40AM 61.0923 -35.2783 270° West 484 557 32,000  Level FlightAware Transoceanic
10:41AM 61.0914 -35.5566 270° West 484 557 32,000  Level FlightAware Transoceanic
10:42AM 61.0900 -35.8349 269° West 484 557 32,000  Level FlightAware Transoceanic
10:43AM 61.0880 -36.1132 269° West 484 557 32,000  Level FlightAware Transoceanic
10:44AM 61.0854 -36.3914 269° West 484 557 32,000  Level FlightAware Transoceanic
10:45AM 61.0822 -36.6696 269° West 484 557 32,000  Level FlightAware Transoceanic
10:46AM 61.0785 -36.9477 268° West 484 557 32,000  Level FlightAware Transoceanic
10:47AM 61.0742 -37.2257 268° West 484 557 32,000  Level FlightAware Transoceanic
10:48AM 61.0694 -37.5037 268° West 484 557 32,000  Level FlightAware Transoceanic
10:49AM 61.0639 -37.7815 268° West 484 557 32,000  Level FlightAware Transoceanic
10:50AM 61.0579 -38.0593 267° West 484 557 32,000  Level FlightAware Transoceanic
10:51AM 61.0514 -38.3369 267° West 484 557 32,000  Level FlightAware Transoceanic
10:52AM 61.0442 -38.6145 267° West 484 557 32,000  Level FlightAware Transoceanic
10:53AM 61.0365 -38.8919 267° West 484 557 32,000  Level FlightAware Transoceanic
10:54AM 61.0282 -39.1691 266° West 484 557 32,000  Level FlightAware Transoceanic
10:55AM 61.0194 -39.4463 266° West 484 557 32,000  Level FlightAware Transoceanic
10:56AM 61.0100 -39.7232 266° West 484 557 32,000 180 Level FlightAware Transoceanic
10:57AM 61.0006 -39.9835 266° West  Level FlightAware Approximate
10:58AM 60.9908 -40.2436 266° West  Level FlightAware Approximate
10:59AM 61.0078 -40.2273 274° West  Level FlightAware Approximate
11:00AM 61.0163 -40.4878 274° West  Level FlightAware Approximate
11:00AM 61.0000 -40.0000 274° West 498 573 33,000  Level ETMS Enhanced Traffic Management System
11:01AM 61.0243 -40.7484 274° West  Level FlightAware Approximate
11:02AM 61.0318 -41.0091 274° West  Level FlightAware Approximate
11:03AM 61.0387 -41.2700 273° West  Level FlightAware Approximate
11:03AM 61.0667 -41.5667 271° West 480 552 33,000  Level Gander Center
11:04AM 61.0452 -41.5309 273° West  Level FlightAware Approximate
11:04AM 61.0833 -41.8500 277° West 480 552 33,000  Level Gander Center
11:05AM 61.0512 -41.7920 273° West  Level FlightAware Approximate
11:05AM 61.0833 -42.1333 270° West 490 564 33,000  Level Gander Center
11:06AM 61.0707 -42.5678 272° West 498 573 33,000  Level FlightAware Transoceanic
11:06AM 61.0833 -42.4167 270° West 490 564 33,000  Level Gander Center
11:07AM 61.0755 -42.8537 272° West 498 573 33,000  Level FlightAware Transoceanic
11:07AM 61.1000 -42.6833 277° West 490 564 33,000  Level Gander Center
11:08AM 61.0798 -43.1397 272° West 498 573 33,000  Level FlightAware Transoceanic
11:08AM 61.1000 -42.9667 270° West 490 564 33,000  Level Gander Center
11:09AM 61.0834 -43.4258 271° West 498 573 33,000  Level FlightAware Transoceanic
11:09AM 61.1000 -43.2500 270° West 490 564 33,000  Level Gander Center
11:10AM 61.1000 -43.5333 270° West 490 564 33,000  Level Gander Center
11:11AM 61.1000 -43.8167 270° West 500 575 33,000  Level Gander Center
11:12AM 61.1000 -44.1000 270° West 490 564 33,000  Level Gander Center
11:13AM 61.1167 -44.3667 277° West 490 564 33,000  Level Gander Center
11:14AM 61.1167 -44.6500 270° West 490 564 33,000  Level Gander Center
11:15AM 61.1167 -44.9333 270° West 490 564 33,000  Level Gander Center
11:16AM 61.1167 -45.2167 270° West 490 564 33,000  Level Gander Center
11:17AM 61.1167 -45.5000 270° West 500 575 33,000  Level Gander Center
11:18AM 61.1167 -45.7833 270° West 500 575 33,000  Level Gander Center
11:19AM 61.1167 -46.0667 270° West 500 575 33,000  Level Gander Center
11:20AM 61.1167 -46.3833 270° West 500 575 33,000  Level Gander Center
11:21AM 61.1167 -46.6500 270° West 500 575 33,000  Level Gander Center
11:22AM 61.1000 -46.9333 263° West 500 575 33,000  Level Gander Center
11:23AM 61.1000 -47.2167 270° West 500 575 33,000  Level Gander Center
11:24AM 61.1000 -47.5000 270° West 500 575 33,000  Level Gander Center
11:25AM 61.0833 -47.7833 263° West 490 564 33,000  Level Gander Center
11:26AM 61.0833 -48.0667 270° West 490 564 33,000  Level Gander Center
11:27AM 61.0667 -48.3500 263° West 490 564 33,000  Level Gander Center
11:28AM 61.0667 -48.6000 270° West 490 564 33,000  Level Gander Center
11:29AM 61.0500 -48.9167 264° West 500 575 33,000  Level Gander Center
11:30AM 61.0500 -49.2000 270° West 500 575 33,000  Level Gander Center
11:31AM 61.0333 -49.4667 263° West 500 575 33,000  Level Gander Center
11:32AM 61.0333 -49.7500 270° West 500 575 33,000  Level Gander Center
11:33AM 61.0333 -50.0333 270° West 500 575 33,000  Level Gander Center
11:34AM 61.0333 -50.3000 270° West 500 575 33,000  Level Gander Center
11:35AM 61.0500 -50.6167 276° West 500 575 33,000  Level Gander Center
11:36AM 61.0667 -50.8833 277° West 490 564 33,000  Level Gander Center
11:37AM 61.0667 -51.1667 270° West 490 564 33,000  Level Gander Center
11:38AM 61.0667 -51.4333 270° West 490 564 33,000  Level Gander Center
11:39AM 61.1000 -51.7500 282° West 500 575 33,000  Level Gander Center
11:40AM 61.1000 -52.0167 270° West 490 564 33,000  Level Gander Center
11:41AM 61.1000 -52.3000 270° West 490 564 33,000  Level Gander Center
11:42AM 61.1000 -52.5667 270° West 500 575 33,000  Level Gander Center
11:43AM 61.1167 -52.8500 274° West 500 575 33,000  Level Gander Center
11:44AM 61.0000 -50.0000 274° West 498 573 33,000  Level ETMS Enhanced Traffic Management System
11:44AM 61.1167 -53.1500 270° West 500 575 33,000  Level Gander Center
11:45AM 61.1167 -53.4333 270° West 500 575 33,000  Level Gander Center
11:46AM 61.1167 -53.7167 270° West 500 575 33,000  Level Gander Center
11:47AM 61.1333 -54.0167 277° West 500 575 33,000  Level Gander Center
11:48AM 61.1167 -54.3000 263° West 500 575 33,000  Level Gander Center
11:49AM 61.1167 -54.5667 270° West 500 575 33,000  Level Gander Center
11:50AM 61.1167 -54.8500 270° West 500 575 33,000  Level Gander Center
11:51AM 61.1333 -55.1167 277° West 500 575 33,000  Level Gander Center
11:52AM 61.1333 -55.4333 270° West 500 575 33,000  Level Gander Center
11:53AM 61.1167 -55.7000 263° West 490 564 33,000  Level Gander Center
11:54AM 61.1167 -55.9833 270° West 490 564 33,000  Level Gander Center
11:55AM 61.1167 -56.2667 270° West 490 564 33,000  Level Gander Center
11:56AM 61.1167 -56.5333 270° West 490 564 33,000  Level Gander Center
11:57AM 61.1167 -56.8167 270° West 490 564 33,000  Level Gander Center
11:58AM 61.1000 -57.1167 264° West 490 564 33,000  Level Gander Center
11:59AM 61.1000 -57.4000 270° West 490 564 33,000  Level Gander Center
12:00PM 61.1000 -57.6667 270° West 490 564 33,000 300 Level Gander Center
12:01PM 61.0833 -57.9500 263° West 490 564 33,600 780 Climbing Gander Center
12:02PM 61.0667 -58.2167 263° West 480 552 34,800 960 Climbing Montreal Center
12:03PM 61.0667 -58.4667 270° West 480 552 35,800 660 Climbing Montreal Center
12:04PM 61.0833 -58.7833 276° West 480 552 36,000 60 Climbing Gander Center
12:05PM 61.0667 -59.0500 263° West 470 541 36,000  Level Gander Center
12:06PM 61.0500 -59.3000 262° West 470 541 36,000  Level Montreal Center
12:07PM 61.0500 -59.5167 270° West 470 541 36,000  Level Montreal Center
12:08PM 61.0167 -59.7833 256° West 470 541 36,000  Level Montreal Center
12:09PM 61.0167 -60.0333 270° West 460 529 36,000  Level Montreal Center
12:10PM 61.0000 -60.2833 262° West 460 529 36,000  Level Montreal Center
12:11PM 60.9833 -60.5833 264° West 460 529 36,000  Level Montreal Center
12:12PM 60.9667 -60.8333 262° West 460 529 36,000  Level Montreal Center
12:13PM 60.9500 -61.0500 261° West 450 518 36,000  Level Montreal Center
12:14PM 60.9500 -61.3333 270° West 440 506 36,000  Level Montreal Center
12:15PM 60.9167 -61.6167 257° West 450 518 36,000  Level Montreal Center
12:16PM 60.9000 -61.8833 263° West 440 506 36,000  Level Montreal Center
12:17PM 60.8667 -62.1000 253° West 440 506 36,000  Level Montreal Center
12:18PM 60.8667 -62.3500 270° West 430 495 36,000  Level Montreal Center
12:19PM 60.8333 -62.6000 255° West 430 495 36,000  Level Montreal Center
12:20PM 60.8167 -62.8500 262° West 440 506 36,000  Level Montreal Center
12:21PM 60.8000 -63.1167 263° West 430 495 36,000  Level Montreal Center
12:22PM 60.7833 -63.3333 261° West 440 506 36,000  Level Montreal Center
12:23PM 60.7667 -63.6333 264° West 440 506 36,000  Level Gander Center
12:24PM 60.7333 -63.9000 256° West 440 506 36,000  Level Gander Center
12:25PM 60.7167 -64.0833 260° West 440 506 36,000  Level Montreal Center
12:26PM 60.7000 -64.3000 261° West 440 506 36,000  Level Montreal Center
12:27PM 60.6667 -64.5500 255° West 430 495 36,000  Level Montreal Center
12:28PM 60.6500 -64.8000 262° West 430 495 36,000  Level Montreal Center
12:29PM 60.6167 -65.0167 253° West 430 495 36,000  Level Montreal Center
12:30PM 60.5833 -65.2667 255° West 430 495 36,000  Level Montreal Center
12:31PM 60.5833 -65.5167 270° West 410 472 36,000  Level Montreal Center
12:32PM 60.5667 -65.7167 260° West 410 472 36,000  Level Montreal Center
12:33PM 60.5333 -65.9667 255° West 430 495 36,000  Level Montreal Center
12:34PM 60.5000 -66.1833 253° West 420 483 36,000  Level Montreal Center
12:35PM 60.4667 -66.4333 255° West 420 483 36,000  Level Montreal Center
12:36PM 60.4500 -66.6500 261° West 410 472 36,000  Level Montreal Center
12:37PM 60.4333 -66.8667 261° West 410 472 36,000  Level Montreal Center
12:38PM 60.4000 -67.1000 254° West 400 460 36,000  Level Montreal Center
12:39PM 60.3833 -67.3167 261° West 420 483 36,000  Level Montreal Center
12:40PM 60.3500 -67.5333 253° West 410 472 36,000  Level Montreal Center
12:41PM 60.3167 -67.7833 255° West 410 472 36,000  Level Montreal Center
12:42PM 60.2833 -67.9833 251° West 410 472 36,000  Level Montreal Center
12:43PM 60.2667 -68.2333 262° West 420 483 36,000  Level Montreal Center
12:44PM 60.2333 -68.4500 253° West 410 472 36,000  Level Montreal Center
12:45PM 60.2000 -68.6833 254° West 410 472 36,000  Level Montreal Center
12:46PM 60.1833 -68.9000 261° West 400 460 36,000  Level Montreal Center
12:47PM 60.1500 -69.1000 252° West 410 472 36,000  Level Montreal Center
12:48PM 60.1167 -69.3500 255° West 420 483 36,000  Level Montreal Center
12:49PM 60.0833 -69.5500 252° West 400 460 36,000  Level Montreal Center
12:50PM 60.0667 -69.7667 261° West 410 472 36,000  Level Montreal Center
12:51PM 60.0333 -70.0000 254° West 420 483 36,000  Level Montreal Center
12:52PM 60.0500 -70.2333 278° West 410 472 36,000  Level Montreal Center
12:53PM 60.0333 -70.4833 263° West 420 483 36,000  Level Montreal Center
12:54PM 60.0500 -70.7167 278° West 410 472 36,000  Level Montreal Center
12:55PM 60.0500 -70.9500 270° West 410 472 36,000  Level Montreal Center
12:56PM 60.0667 -71.1500 280° West 420 483 36,000  Level Montreal Center
12:57PM 60.0667 -71.3833 270° West 400 460 36,000  Level Montreal Center
12:58PM 60.0833 -71.6167 278° West 390 449 36,000  Level Montreal Center
12:59PM 60.0833 -71.8167 270° West 390 449 36,000  Level Montreal Center
01:00PM 60.1000 -72.0500 278° West 390 449 36,000  Level Montreal Center
01:01PM 60.1000 -72.2500 270° West 390 449 36,000  Level Montreal Center
01:02PM 60.0833 -72.4833 262° West 390 449 36,000  Level Montreal Center
01:03PM 60.1000 -72.7000 279° West 390 449 36,000  Level Montreal Center
01:04PM 60.1000 -72.9333 270° West 400 460 36,000  Level Montreal Center
01:05PM 60.1000 -73.1333 270° West 400 460 36,000  Level Montreal Center
01:06PM 60.1000 -73.3667 270° West 400 460 36,000  Level Montreal Center
01:07PM 60.1167 -73.6000 278° West 390 449 36,000  Level Montreal Center
01:08PM 60.1167 -73.8000 270° West 390 449 36,000  Level Montreal Center
01:09PM 60.1167 -74.0333 270° West 390 449 36,000  Level Montreal Center
01:10PM 60.1167 -74.2333 270° West 400 460 36,000  Level Montreal Center
01:11PM 60.1167 -74.4833 270° West 390 449 36,000  Level Montreal Center
01:12PM 60.1167 -74.7167 270° West 410 472 36,000  Level Montreal Center
01:13PM 60.1167 -74.9167 270° West 400 460 36,000  Level Montreal Center
01:14PM 60.1167 -75.1500 270° West 400 460 36,000  Level Montreal Center
01:15PM 60.1167 -75.3833 270° West 410 472 36,000  Level Montreal Center
01:16PM 60.1167 -75.6167 270° West 410 472 36,000  Level Montreal Center
01:17PM 60.1167 -75.8167 270° West 400 460 36,000  Level Montreal Center
01:19PM 60.0667 -75.9500 233° Southwest 410 472 36,000  Level Edmonton Center
01:19PM 60.1167 -76.3000 286° West 400 460 36,000  Level Montreal Center
01:20PM 60.1000 -76.5333 262° West 410 472 36,000  Level Montreal Center
01:21PM 60.1000 -76.7333 270° West 410 472 36,000  Level Montreal Center
01:22PM 60.1000 -77.0000 270° West 410 472 36,000  Level Montreal Center
01:23PM 60.1000 -77.2333 270° West 420 483 36,000  Level Montreal Center
01:24PM 60.1000 -77.4667 270° West 430 495 36,000  Level Montreal Center
01:25PM 60.0833 -77.7000 262° West 430 495 36,000  Level Montreal Center
01:26PM 60.0833 -77.9500 270° West 430 495 36,000  Level Montreal Center
01:27PM 60.0833 -78.2167 270° West 450 518 36,000  Level Montreal Center
01:28PM 60.0667 -78.4500 262° West 450 518 36,000  Level Montreal Center
01:29PM 60.0500 -78.7167 263° West 460 529 36,000  Level Montreal Center
01:30PM 60.0500 -78.9500 270° West 460 529 36,000  Level Montreal Center
01:31PM 60.0500 -79.2167 270° West 460 529 36,000  Level Montreal Center
01:32PM 60.0333 -79.4833 263° West 460 529 36,000  Level Montreal Center
01:33PM 60.0333 -79.7167 270° West 460 529 36,000  Level Montreal Center
01:34PM 60.0000 -79.9833 256° West 460 529 36,000  Level Montreal Center
01:35PM 59.9833 -80.2167 262° West 450 518 36,000  Level Montreal Center
01:36PM 59.9500 -80.4833 256° West 450 518 36,000  Level Montreal Center
01:37PM 59.9000 -80.7167 247° West 430 495 36,000  Level Montreal Center
01:38PM 59.8833 -80.9500 262° West 450 518 36,000  Level Montreal Center
01:39PM 59.8333 -81.1667 245° Southwest 440 506 36,000  Level Montreal Center
01:40PM 59.7833 -81.4333 250° West 450 518 36,000  Level Montreal Center
01:41PM 59.7500 -81.6667 254° West 450 518 36,000  Level Montreal Center
01:42PM 59.7167 -81.8833 253° West 440 506 36,000  Level Montreal Center
01:43PM 59.6833 -82.1167 254° West 450 518 36,000  Level Montreal Center
01:44PM 59.6333 -82.3500 247° West 450 518 36,000  Level Montreal Center
01:45PM 59.5833 -82.6000 249° West 450 518 36,000  Level Montreal Center
01:46PM 59.5500 -82.8333 254° West 450 518 36,000  Level Montreal Center
01:47PM 59.5167 -83.0500 253° West 450 518 36,000  Level Montreal Center
01:48PM 59.4667 -83.3000 249° West 450 518 36,000  Level Montreal Center
01:49PM 59.4167 -83.5333 247° West 460 529 36,000  Level Montreal Center
01:50PM 59.3833 -83.7500 253° West 450 518 36,000  Level Montreal Center
01:51PM 59.3333 -84.0167 250° West 460 529 36,000  Level Montreal Center
01:52PM 59.3000 -84.2667 255° West 460 529 36,000  Level Montreal Center
01:53PM 59.2500 -84.4833 246° West 460 529 36,000  Level Montreal Center
01:54PM 59.2167 -84.6667 251° West 460 529 36,000  Level Montreal Center
01:56PM 59.1167 -84.8000 214° Southwest 450 518 36,000  Level Edmonton Center
01:57PM 59.0667 -85.0667 250° West 460 529 36,000  Level Edmonton Center
01:58PM 59.0167 -85.3000 247° West 450 518 36,000  Level Edmonton Center
01:59PM 58.9833 -85.5000 252° West 460 529 36,000  Level Edmonton Center
02:00PM 58.9333 -85.7333 248° West 450 518 36,000  Level Edmonton Center
02:01PM 58.8833 -85.9667 248° West 450 518 36,000  Level Edmonton Center
02:02PM 58.8333 -86.1833 246° West 450 518 36,000  Level Edmonton Center
02:03PM 58.7833 -86.4167 248° West 450 518 36,000  Level Edmonton Center
02:04PM 58.7333 -86.6500 248° West 450 518 36,000  Level Edmonton Center
02:05PM 58.7000 -86.8833 255° West 450 518 36,000  Level Edmonton Center
02:06PM 58.6500 -87.1000 246° West 440 506 36,000  Level Edmonton Center
02:07PM 58.5833 -87.3333 241° Southwest 450 518 36,000  Level Edmonton Center
02:08PM 58.5500 -87.5667 255° West 450 518 36,000  Level Edmonton Center
02:09PM 58.4833 -87.7500 235° Southwest 450 518 36,000  Level Edmonton Center
02:10PM 58.4333 -87.9833 248° West 440 506 36,000  Level Edmonton Center
02:11PM 58.4000 -88.2000 254° West 450 518 36,000  Level Edmonton Center
02:12PM 58.3333 -88.4333 242° Southwest 450 518 36,000  Level Edmonton Center
02:13PM 58.2833 -88.6500 246° West 450 518 36,000  Level Edmonton Center
02:14PM 58.2333 -88.8833 248° West 440 506 36,000  Level Edmonton Center
02:15PM 58.1833 -89.1000 246° West 440 506 36,000  Level Edmonton Center
02:16PM 58.1333 -89.2833 243° Southwest 450 518 36,000  Level Edmonton Center
02:17PM 58.0833 -89.5167 248° West 440 506 36,000  Level Edmonton Center
02:18PM 58.0333 -89.7167 245° Southwest 440 506 36,000  Level Edmonton Center
02:19PM 57.9833 -89.9167 245° Southwest 430 495 36,000  Level Edmonton Center
02:20PM 57.9167 -90.1333 240° Southwest 450 518 36,000  Level Edmonton Center
02:21PM 57.8667 -90.3167 243° Southwest 440 506 36,000  Level Edmonton Center
02:22PM 57.8000 -90.5333 240° Southwest 440 506 36,000  Level Edmonton Center
02:23PM 57.7333 -90.7333 238° Southwest 440 506 36,000  Level Edmonton Center
02:24PM 57.6833 -90.9500 247° West 440 506 36,000  Level Edmonton Center
02:25PM 57.6167 -91.1667 240° Southwest 440 506 36,000  Level Edmonton Center
02:26PM 57.5667 -91.3500 243° Southwest 440 506 36,000  Level Edmonton Center
02:27PM 57.5000 -91.5667 240° Southwest 440 506 36,000  Level Edmonton Center
02:28PM 57.4333 -91.7500 236° Southwest 440 506 36,000  Level Edmonton Center
02:29PM 57.3833 -91.9667 247° West 430 495 36,000  Level Edmonton Center
02:30PM 57.3167 -92.1500 236° Southwest 440 506 36,000  Level Edmonton Center
02:31PM 57.2667 -92.3500 245° Southwest 440 506 36,000  Level Edmonton Center
02:32PM 57.2000 -92.5333 236° Southwest 430 495 36,000  Level Edmonton Center
02:33PM 57.1333 -92.7500 241° Southwest 430 495 36,000  Level Edmonton Center
02:34PM 57.0667 -92.9333 236° Southwest 440 506 36,000  Level Edmonton Center
02:35PM 57.0167 -93.1333 245° Southwest 440 506 36,000  Level Edmonton Center
02:36PM 56.9500 -93.3167 236° Southwest 440 506 36,000  Level Edmonton Center
02:37PM 56.8833 -93.5333 241° Southwest 440 506 36,000  Level Edmonton Center
02:38PM 56.8167 -93.7000 234° Southwest 440 506 36,000  Level Edmonton Center
02:39PM 56.7500 -93.9167 241° Southwest 440 506 36,000  Level Edmonton Center
02:40PM 56.6833 -94.1167 239° Southwest 440 506 36,000  Level Edmonton Center
02:41PM 56.6167 -94.2833 234° Southwest 440 506 36,000  Level Edmonton Center
02:42PM 56.5500 -94.5000 241° Southwest 450 518 36,000  Level Edmonton Center
02:43PM 56.4833 -94.6667 234° Southwest 450 518 36,000  Level Edmonton Center
02:44PM 56.4167 -94.8833 241° Southwest 450 518 36,000  Level Edmonton Center
02:45PM 56.3500 -95.0833 239° Southwest 450 518 36,000  Level Edmonton Center
02:46PM 56.2833 -95.2500 234° Southwest 450 518 36,000  Level Edmonton Center
02:47PM 56.2000 -95.4500 233° Southwest 450 518 36,000  Level Edmonton Center
02:48PM 56.1333 -95.6333 237° Southwest 450 518 36,000  Level Edmonton Center
02:49PM 56.0833 -95.8333 246° West 450 518 36,000  Level Edmonton Center
02:50PM 56.0167 -96.0333 239° Southwest 450 518 36,000  Level Edmonton Center
02:51PM 55.9333 -96.2000 228° Southwest 450 518 36,000  Level Edmonton Center
02:52PM 55.8667 -96.4000 239° Southwest 450 518 36,000  Level Edmonton Center
02:53PM 55.8000 -96.6000 239° Southwest 450 518 36,000  Level Edmonton Center
02:54PM 55.7167 -96.7667 228° Southwest 450 518 36,000  Level Edmonton Center
02:55PM 55.6500 -96.9500 237° Southwest 450 518 36,000  Level Edmonton Center
02:56PM 55.5833 -97.1500 240° Southwest 450 518 36,000  Level Edmonton Center
02:57PM 55.5000 -97.3167 229° Southwest 450 518 36,000  Level Edmonton Center
02:58PM 55.4500 -97.5167 246° West 450 518 36,000  Level Edmonton Center
02:59PM 55.3833 -97.6667 232° Southwest 450 518 36,000  Level Edmonton Center
03:00PM 55.3000 -97.8667 234° Southwest 450 518 36,000  Level Edmonton Center
03:01PM 55.2333 -98.0667 240° Southwest 450 518 36,000  Level Edmonton Center
03:02PM 55.1500 -98.2500 232° Southwest 450 518 36,000  Level Edmonton Center
03:03PM 55.0833 -98.4167 235° Southwest 450 518 36,000  Level Edmonton Center
03:04PM 55.0000 -98.6000 232° Southwest 450 518 36,000  Level Edmonton Center
03:05PM 54.9333 -98.8000 240° Southwest 460 529 36,000  Level Edmonton Center
03:06PM 54.8500 -98.9833 232° Southwest 460 529 36,000  Level Edmonton Center
03:11PM 54.4350 -100.0530 232° Southwest 467 537 36,000  Level FlightAware
03:12PM 54.3840 -100.1720 234° Southwest 467 537 36,000  Level FlightAware
03:13PM 54.3300 -100.2960 233° Southwest 466 536 36,000  Level FlightAware
03:13PM 54.2780 -100.4170 234° Southwest 466 536 36,000  Level FlightAware
03:14PM 54.2180 -100.5490 232° Southwest 467 537 36,000  Level FlightAware
03:15PM 54.1670 -100.6640 233° Southwest 468 539 36,000  Level FlightAware
03:16PM 54.1150 -100.7820 233° Southwest 470 541 36,000  Level FlightAware
03:16PM 54.0710 -100.8820 233° Southwest 470 541 36,000  Level FlightAware
03:17PM 53.9960 -101.0500 233° Southwest 470 541 36,000  Level FlightAware
03:18PM 53.9230 -101.1870 228° Southwest 471 542 36,000  Level FlightAware
03:19PM 53.8540 -101.3420 233° Southwest 472 543 36,000  Level FlightAware
03:20PM 53.7870 -101.4800 231° Southwest 472 543 36,000  Level FlightAware
03:20PM 53.7280 -101.6020 231° Southwest 473 544 36,000  Level FlightAware
03:21PM 53.6870 -101.6830 229° Southwest 473 544 36,000  Level FlightAware
03:22PM 53.6110 -101.8350 230° Southwest 474 545 36,000  Level FlightAware
03:22PM 53.5580 -101.9390 229° Southwest 475 547 36,000  Level FlightAware
03:23PM 53.4760 -102.1010 230° Southwest 476 548 36,000  Level FlightAware
03:24PM 53.3930 -102.2650 230° Southwest 478 550 36,000  Level FlightAware
03:25PM 53.3150 -102.4150 229° Southwest 478 550 36,000  Level FlightAware
03:26PM 53.2630 -102.5150 229° Southwest 478 550 36,000  Level FlightAware
03:27PM 53.2010 -102.6330 229° Southwest 478 550 36,000  Level FlightAware
03:27PM 53.1770 -102.6810 230° Southwest 478 550 36,000  Level FlightAware
03:28PM 53.1150 -102.7990 229° Southwest 478 550 36,000  Level FlightAware
03:28PM 53.0660 -102.8930 229° Southwest 478 550 36,000  Level FlightAware
03:29PM 53.0160 -102.9880 229° Southwest 478 550 36,000  Level FlightAware
03:30PM 52.9670 -103.0820 229° Southwest 478 550 36,000  Level FlightAware
03:31PM 52.9050 -103.2000 229° Southwest 478 550 36,000  Level FlightAware
03:31PM 52.8560 -103.2940 229° Southwest 478 550 36,000  Level FlightAware
03:32PM 52.8060 -103.3880 229° Southwest 478 550 36,000  Level FlightAware
03:33PM 52.7570 -103.4810 229° Southwest 478 550 36,000  Level FlightAware
03:33PM 52.7080 -103.5750 229° Southwest 478 550 36,000  Level FlightAware
03:34PM 52.6580 -103.6690 229° Southwest 478 550 36,000  Level FlightAware
03:35PM 52.6090 -103.7620 229° Southwest 478 550 36,000  Level FlightAware
03:35PM 52.5600 -103.8550 229° Southwest 478 550 36,000  Level FlightAware
03:36PM 52.3167 -104.2833 229° Southwest 480 552 36,000  Level Winnipeg Center
03:37PM 52.2167 -104.4333 223° Southwest 480 552 36,000  Level Winnipeg Center
03:38PM 52.1333 -104.6167 234° Southwest 480 552 36,000  Level Winnipeg Center
03:39PM 52.0500 -104.7833 231° Southwest 480 552 36,000  Level Winnipeg Center
03:40PM 51.9500 -104.9333 223° Southwest 480 552 36,000  Level Winnipeg Center
03:41PM 51.8500 -105.1000 226° Southwest 490 564 36,000  Level Winnipeg Center
03:42PM 51.7667 -105.2500 228° Southwest 490 564 36,000  Level Winnipeg Center
03:43PM 51.6667 -105.4333 229° Southwest 490 564 36,000  Level Winnipeg Center
03:44PM 51.5833 -105.5667 225° Southwest 490 564 36,000  Level Winnipeg Center
03:45PM 51.4833 -105.7500 229° Southwest 490 564 36,000  Level Winnipeg Center
03:52PM 50.9760 -106.5960 229° Southwest 490 564 36,000  Level FlightAware
03:53PM 50.8870 -106.7430 226° Southwest 490 564 36,000  Level FlightAware
03:54PM 50.8010 -106.8840 226° Southwest 490 564 36,000  Level FlightAware
03:54PM 50.7480 -106.9720 226° Southwest 490 564 36,000  Level FlightAware
03:55PM 50.6940 -107.0590 226° Southwest 490 564 36,000  Level FlightAware
03:56PM 50.6400 -107.1470 226° Southwest 490 564 36,000  Level FlightAware
03:57PM 50.5740 -107.2560 226° Southwest 490 564 36,000  Level FlightAware
03:57PM 50.5200 -107.3430 226° Southwest 490 564 36,000  Level FlightAware
03:58PM 50.4660 -107.4300 226° Southwest 490 564 36,000  Level FlightAware
03:59PM 50.4130 -107.5170 226° Southwest 490 564 36,000  Level FlightAware
03:59PM 50.3460 -107.6260 226° Southwest 490 564 36,000  Level FlightAware
04:00PM 50.2920 -107.7130 226° Southwest 490 564 36,000  Level FlightAware
04:01PM 50.2390 -107.8000 226° Southwest 490 564 36,000  Level FlightAware
04:01PM 50.1850 -107.8860 226° Southwest 490 564 36,000  Level FlightAware
04:02PM 50.1320 -107.9730 226° Southwest 490 564 36,000  Level FlightAware
04:03PM 50.0920 -108.0380 226° Southwest 490 564 36,000  Level FlightAware
04:03PM 49.7333 -108.4833 226° Southwest 490 564 36,000  Level Winnipeg Center
04:04PM 49.6333 -108.6167 221° Southwest 510 587 36,000  Level Winnipeg Center
04:05PM 49.5167 -108.7667 220° Southwest 510 587 36,000  Level Winnipeg Center
04:06PM 49.4167 -108.9000 221° Southwest 510 587 36,000  Level Winnipeg Center
04:07PM 49.3167 -109.0667 227° Southwest 500 575 36,000  Level Winnipeg Center
04:08PM 49.2000 -109.1833 213° Southwest 510 587 36,000  Level Winnipeg Center
04:11PM 48.9719 -109.4994 222° Southwest 506 582 36,000  Level Salt Lake Center
04:12PM 48.8647 -109.6381 220° Southwest 506 582 36,000  Level Salt Lake Center
04:13PM 48.7572 -109.7767 220° Southwest 508 585 36,000  Level Salt Lake Center
04:14PM 48.6494 -109.9161 221° Southwest 511 588 36,000  Level Salt Lake Center
04:15PM 48.5411 -110.0544 220° Southwest 511 588 36,000  Level Salt Lake Center
04:16PM 48.4125 -110.2219 221° Southwest 512 589 36,000  Level Salt Lake Center
04:17PM 48.3028 -110.3581 220° Southwest 512 589 36,000  Level Salt Lake Center
04:18PM 48.1953 -110.4947 220° Southwest 509 586 36,000  Level Salt Lake Center
04:19PM 48.0856 -110.6314 220° Southwest 512 589 36,000  Level Salt Lake Center
04:20PM 47.9767 -110.7675 220° Southwest 512 589 36,000  Level Salt Lake Center
04:21PM 47.8667 -110.9036 220° Southwest 515 593 36,000  Level Salt Lake Center
04:22PM 47.7564 -111.0406 220° Southwest 515 593 36,000  Level Salt Lake Center
04:23PM 47.6356 -111.1889 220° Southwest 516 594 36,000  Level Salt Lake Center
04:24PM 47.5247 -111.3250 220° Southwest 517 595 36,000  Level Salt Lake Center
04:25PM 47.4219 -111.4711 224° Southwest 518 596 36,000  Level Salt Lake Center
04:26PM 47.3200 -111.6225 225° Southwest 519 597 36,000  Level Salt Lake Center
04:27PM 47.2186 -111.7739 225° Southwest 520 598 36,000  Level Salt Lake Center
04:28PM 47.0961 -111.9569 226° Southwest 524 603 36,000  Level Salt Lake Center
04:29PM 46.9928 -112.1078 225° Southwest 524 603 36,000  Level Salt Lake Center
04:30PM 46.8906 -112.2572 225° Southwest 522 601 36,000  Level Salt Lake Center
04:31PM 46.7875 -112.4056 225° Southwest 522 601 36,000  Level Salt Lake Center
04:32PM 46.6847 -112.5536 225° Southwest 521 600 36,000  Level Salt Lake Center
04:33PM 46.5822 -112.7022 225° Southwest 521 600 36,000 -60 Level Salt Lake Center
04:34PM 46.4772 -112.8492 224° Southwest 524 603 35,900  Descending Salt Lake Center
04:35PM 46.3603 -113.0178 225° Southwest 524 603 36,000  Climbing Salt Lake Center
04:36PM 46.2575 -113.1631 224° Southwest 520 598 36,000  Level Salt Lake Center
04:37PM 46.1442 -113.3211 224° Southwest 519 597 36,000  Level Salt Lake Center
04:38PM 46.0511 -113.4497 224° Southwest 517 595 36,000  Level Salt Lake Center
04:39PM 45.9475 -113.5908 223° Southwest 516 594 36,000  Level Salt Lake Center
04:40PM 45.8342 -113.7475 224° Southwest 514 592 36,000  Level Salt Lake Center
04:41PM 45.7306 -113.8917 224° Southwest 518 596 36,000  Level Salt Lake Center
04:43PM 45.6264 -114.0322 223° Southwest 517 595 36,000  Level Salt Lake Center
04:44PM 45.5175 -114.1789 223° Southwest 518 596 36,000  Level Salt Lake Center
04:45PM 45.4017 -114.3369 224° Southwest 517 595 36,000  Level Salt Lake Center
04:46PM 45.3017 -114.4697 223° Southwest 516 594 36,000  Level Salt Lake Center
04:47PM 45.1850 -114.6261 223° Southwest 516 594 36,000  Level Salt Lake Center
04:48PM 45.0856 -114.7583 223° Southwest 513 590 36,000  Level Salt Lake Center
04:49PM 44.9856 -114.8911 223° Southwest 515 593 36,000  Level Salt Lake Center
04:50PM 44.8681 -115.0433 223° Southwest 513 590 36,000  Level Salt Lake Center
04:51PM 44.7675 -115.1750 223° Southwest 514 592 36,000  Level Salt Lake Center
04:52PM 44.6506 -115.3286 223° Southwest 515 593 36,000  Level Salt Lake Center
04:53PM 44.5500 -115.4586 223° Southwest 512 589 36,000  Level Salt Lake Center
04:54PM 44.4483 -115.5894 223° Southwest 514 592 36,000  Level Salt Lake Center
04:55PM 44.3300 -115.7397 222° Southwest 511 588 36,000  Level Salt Lake Center
04:56PM 44.2283 -115.8681 222° Southwest 509 586 36,000  Level Salt Lake Center
04:57PM 44.1258 -115.9975 222° Southwest 513 590 36,000  Level Salt Lake Center
04:58PM 44.0083 -116.1464 222° Southwest 507 583 36,000  Level Salt Lake Center
04:59PM 43.9072 -116.2725 222° Southwest 507 583 36,000  Level Salt Lake Center
05:00PM 43.7892 -116.4189 222° Southwest 507 583 36,000  Level Salt Lake Center
05:01PM 43.6881 -116.5444 222° Southwest 507 583 36,000  Level Salt Lake Center
05:02PM 43.5883 -116.6683 222° Southwest 502 578 36,000  Level Salt Lake Center
05:03PM 43.4706 -116.8125 222° Southwest 507 583 36,000  Level Salt Lake Center
05:04PM 43.3697 -116.9353 222° Southwest 506 582 36,000  Level Salt Lake Center
05:05PM 43.2528 -117.0781 222° Southwest 507 583 36,000  Level Salt Lake Center
05:06PM 43.1517 -117.1983 221° Southwest 502 578 36,000  Level Salt Lake Center
05:07PM 43.0511 -117.3214 222° Southwest 507 583 36,000  Level Salt Lake Center
05:08PM 42.9331 -117.4606 221° Southwest 503 579 36,000  Level Salt Lake Center
05:09PM 42.8333 -117.5808 222° Southwest 501 577 36,000  Level Salt Lake Center
05:10PM 42.7161 -117.7206 221° Southwest 501 577 36,000  Level Salt Lake Center
05:11PM 42.6164 -117.8394 221° Southwest 500 575 36,000  Level Salt Lake Center
05:12PM 42.4694 -117.9233 203° Southwest 520 598 36,000  Level Salt Lake Center
05:13PM 42.3369 -117.9800 198° South 521 600 36,000  Level Salt Lake Center
05:14PM 42.2033 -118.0386 198° South 520 598 36,000  Level Salt Lake Center
05:15PM 42.0525 -118.1050 198° South 513 590 36,000  Level Salt Lake Center
05:16PM 41.9219 -118.1611 198° South 515 593 36,000  Level Salt Lake Center
05:17PM 41.7711 -118.2286 198° South 512 589 36,000  Level Salt Lake Center
05:18PM 41.6411 -118.2833 197° South 512 589 36,000  Level Salt Lake Center
05:19PM 41.5114 -118.3400 198° South 514 592 36,000  Level Salt Lake Center
05:20PM 41.3600 -118.4042 198° South 512 589 36,000  Level Salt Lake Center
05:22PM 41.2300 -118.4589 198° South 512 589 36,000  Level Salt Lake Center
05:23PM 41.0792 -118.5231 198° South 511 588 36,000  Level Salt Lake Center
05:24PM 40.9492 -118.5781 198° South 513 590 36,000  Level Salt Lake Center
05:25PM 40.7978 -118.6411 198° South 512 589 36,000  Level Salt Lake Center
05:26PM 40.6681 -118.6944 197° South 513 590 36,000  Level Salt Lake Center
05:27PM 40.5389 -118.7492 198° South 511 588 36,000  Level Salt Lake Center
05:28PM 40.3867 -118.8125 198° South 512 589 36,000  Level Salt Lake Center
05:28PM 40.3606 -118.8236 198° South 512 589 36,000  Level Oakland Center
05:29PM 40.1969 -118.8917 198° South 515 593 36,000  Level Oakland Center
05:35PM 39.4250 -119.2020 198° South 505 581 36,000  Level FlightAware
05:36PM 39.3120 -119.2470 197° South 504 580 36,000  Level FlightAware
05:37PM 39.1720 -119.2930 194° South 507 583 36,000  Level FlightAware
05:37PM 39.0940 -119.3140 192° South 507 583 36,000  Level FlightAware
05:38PM 39.0160 -119.3350 192° South 507 583 36,000  Level FlightAware
05:39PM 38.9380 -119.3570 192° South 507 583 36,000  Level FlightAware
05:39PM 38.7750 -119.3490 178° South 513 590 36,000  Level FlightAware
05:40PM 38.6660 -119.3650 187° South 512 589 36,000 60 Level FlightAware
05:41PM 38.5720 -119.3790 187° South 513 590 36,100 660 Climbing FlightAware
05:41PM 38.4670 -119.3950 187° South 513 590 37,000 600 Climbing FlightAware
05:42PM 38.3760 -119.4090 187° South 514 592 37,000  Level FlightAware
05:43PM 38.2780 -119.4230 186° South 514 592 37,000  Level FlightAware
05:44PM 38.1800 -119.4370 186° South 515 593 37,000  Level FlightAware
05:44PM 38.0840 -119.4520 187° South 515 593 37,000  Level FlightAware
05:45PM 38.0030 -119.4620 186° South 515 593 37,000  Level FlightAware
05:46PM 37.8790 -119.4830 188° South 512 589 37,000  Level FlightAware
05:46PM 37.7860 -119.4960 186° South 510 587 37,000  Level FlightAware
05:47PM 37.6730 -119.5130 187° South 507 583 37,000  Level FlightAware
05:48PM 37.5810 -119.5260 186° South 507 583 37,000  Level FlightAware
05:48PM 37.4780 -119.5410 187° South 507 583 37,000  Level FlightAware
05:49PM 37.3830 -119.5550 187° South 507 583 37,000  Level FlightAware
05:50PM 37.2910 -119.5680 186° South 508 585 37,000  Level FlightAware
05:51PM 37.1860 -119.5830 186° South 509 586 37,000  Level FlightAware
05:51PM 37.0890 -119.5960 186° South 510 587 37,000  Level FlightAware
05:52PM 36.9860 -119.6010 182° South 513 590 37,000  Level FlightAware
05:53PM 36.8900 -119.6000 180° South 512 589 37,000  Level FlightAware
05:53PM 36.7960 -119.6000 180° South 512 589 37,000  Level FlightAware
05:54PM 36.6910 -119.6010 180° South 511 588 37,000  Level FlightAware
05:55PM 36.5950 -119.6030 181° South 510 587 37,000  Level FlightAware
05:55PM 36.4870 -119.6050 181° South 509 586 37,000  Level FlightAware
05:56PM 36.3940 -119.6070 181° South 508 585 37,000  Level FlightAware
05:57PM 36.2990 -119.6090 181° South 507 583 37,000  Level FlightAware
05:58PM 36.1950 -119.6150 183° South 504 580 37,000  Level FlightAware
05:58PM 36.1050 -119.6480 197° South 502 578 37,000  Level FlightAware
05:59PM 36.0160 -119.6830 198° South 502 578 37,000  Level FlightAware
05:59PM 35.9500 -119.7100 198° South 502 578 37,000  Level FlightAware
06:00PM 35.8760 -119.7390 198° South 504 580 37,000  Level FlightAware
06:01PM 35.7550 -119.7490 184° South 509 586 37,000  Level FlightAware
06:01PM 35.6740 -119.7330 171° South 509 586 37,000  Level FlightAware
06:02PM 35.5580 -119.7060 169° South 510 587 37,000  Level FlightAware
06:03PM 35.4750 -119.6880 170° South 508 585 37,000 -420 Level FlightAware
06:04PM 35.3710 -119.6780 176° South 505 581 36,500 -1,620 Descending FlightAware
06:04PM 35.2640 -119.6760 179° South 500 575 34,600 -2,640 Descending FlightAware
06:05PM 35.1730 -119.6710 177° South 495 570 32,800 -2,100 Descending FlightAware
06:06PM 35.0810 -119.6240 157° South 493 567 31,700 -1,860 Descending FlightAware
06:06PM 35.0120 -119.5530 140° Southeast 483 556 30,200 -2,280 Descending FlightAware
06:07PM 34.9370 -119.4760 140° Southeast 473 544 28,500 -2,220 Descending FlightAware
06:08PM 34.8720 -119.4070 139° Southeast 464 534 27,100 -2,220 Descending FlightAware
06:08PM 34.8060 -119.3400 140° Southeast 448 516 25,600 -2,220 Descending FlightAware
06:09PM 34.7360 -119.2670 139° Southeast 445 512 24,000 -2,100 Descending FlightAware
06:10PM 34.6750 -119.2060 141° Southeast 430 495 22,700 -2,160 Descending FlightAware
06:11PM 34.6050 -119.1350 140° Southeast 419 482 21,000 -2,220 Descending FlightAware
06:11PM 34.5420 -119.0710 140° Southeast 410 472 19,600 -2,100 Descending FlightAware
06:12PM 34.4410 -118.9670 140° Southeast 401 461 17,200 -2,040 Descending FlightAware
06:14PM 34.3390 -118.8770 144° Southeast 388 447 14,900 -2,100 Descending FlightAware
06:15PM 34.2190 -118.8300 162° South 371 427 12,400 -1,560 Descending FlightAware
06:16PM 34.1220 -118.7950 163° South 334 384 11,600 -840 Descending FlightAware
06:17PM 34.0380 -118.7320 148° Southeast 295 339 10,700 -780 Descending FlightAware
06:17PM 34.0340 -118.7130 104° East 288 331 10,500 -960 Descending FlightAware
06:18PM 34.0290 -118.6570 96° East 276 318 9,900 -1,200 Descending FlightAware
06:18PM 34.0250 -118.6110 96° East 272 313 9,200 -1,140 Descending FlightAware
06:19PM 34.0210 -118.5660 96° East 261 300 8,800 -660 Descending FlightAware
06:19PM 34.0170 -118.5310 98° East 244 281 8,600 -660 Descending FlightAware
06:20PM 34.0140 -118.4920 95° East 227 261 8,200 -900 Descending FlightAware
06:20PM 34.0120 -118.4590 94° East 219 252 7,800 -1,200 Descending FlightAware
06:21PM 34.0150 -118.4230 84° East 216 249 7,100 -1,440 Descending FlightAware
06:21PM 34.0180 -118.3960 82° East 214 246 6,500 -1,560 Descending FlightAware
06:22PM 34.0220 -118.3600 82° East 210 242 5,700 -1,500 Descending FlightAware
06:22PM 34.0230 -118.3400 87° East 198 228 5,400 -1,200 Descending FlightAware
06:22PM 34.0250 -118.3160 84° East 188 216 4,900 -1,560 Descending FlightAware
06:23PM 34.0280 -118.2830 84° East 186 214 4,000 -1,560 Descending FlightAware
06:23PM 34.0310 -118.2570 82° East 187 215 3,500 -1,320 Descending FlightAware
06:24PM 34.0330 -118.2260 86° East 191 220 2,800 -900 Descending FlightAware
06:24PM 34.0250 -118.1980 109° East 190 219 2,600 -300 Descending FlightAware
06:24PM 34.0110 -118.1930 164° South 190 219 2,600 -180 Level FlightAware
06:25PM 33.9900 -118.1910 175° South 193 222 2,500  Descending FlightAware
06:25PM 33.9700 -118.2100 218° Southwest 196 226 2,600  Climbing FlightAware
06:26PM 33.9670 -118.2520 265° West 182 209 2,500 -420 Descending FlightAware
06:26PM 33.9650 -118.2700 262° West 180 207 2,200 -720 Descending FlightAware
06:27PM 33.9630 -118.2960 265° West 179 206 1,800 -780 Descending FlightAware
06:28PM 33.9590 -118.3360 263° West 149 171 1,200 -780 Descending FlightAware
06:28PM 33.9580 -118.3440 261° West 145 167 1,100 -780 Descending FlightAware
06:28PM 33.9560 -118.3650 263° West 142 163 700 -900 Descending FlightAware
06:29PM 33.9530 -118.3890 261° West 142 163 300 -480 Descending FlightAware
06:29PM 33.9500 -118.4180 263° West 140 161 200 -180 Descending FlightAware
06:37PM 33.9425 -118.4081 228° Southwest  Level Estimated